sensor_id;sensor_type;location;lat;lon;timestamp;pressure;altitude;pressure_sealevel;temperature;humidity
63321;BME280;49449;48.800;9.534;2024-01-07T00:00:33;97932.81;;;6.41;43.49
63321;BME280;49449;48.800;9.534;2024-01-07T00:03:00;97928.16;;;6.43;43.51
63321;BME280;49449;48.800;9.534;2024-01-07T00:05:28;97927.94;;;6.45;43.32
63321;BME280;49449;48.800;9.534;2024-01-07T00:07:59;97936.59;;;6.45;43.68
63321;BME280;49449;48.800;9.534;2024-01-07T00:10:27;97934.19;;;6.44;44.06
63321;BME280;49449;48.800;9.534;2024-01-07T00:12:55;97939.22;;;6.45;43.73
63321;BME280;49449;48.800;9.534;2024-01-07T00:15:23;97941.63;;;6.47;43.53
63321;BME280;49449;48.800;9.534;2024-01-07T00:17:53;97941.84;;;6.45;43.71
63321;BME280;49449;48.800;9.534;2024-01-07T00:20:21;97939.44;;;6.44;44.14
63321;BME280;49449;48.800;9.534;2024-01-07T00:22:48;97941.84;;;6.45;44.13
63321;BME280;49449;48.800;9.534;2024-01-07T00:25:18;97943.69;;;6.45;43.89
63321;BME280;49449;48.800;9.534;2024-01-07T00:27:46;97950.31;;;6.48;44.05
63321;BME280;49449;48.800;9.534;2024-01-07T00:30:13;97949.50;;;6.47;44.46
63321;BME280;49449;48.800;9.534;2024-01-07T00:32:41;97947.47;;;6.49;44.10
63321;BME280;49449;48.800;9.534;2024-01-07T00:35:09;97948.25;;;6.50;44.32
63321;BME280;49449;48.800;9.534;2024-01-07T00:37:37;97940.97;;;6.52;44.13
63321;BME280;49449;48.800;9.534;2024-01-07T00:40:06;97942.81;;;6.51;43.63
63321;BME280;49449;48.800;9.534;2024-01-07T00:42:35;97939.38;;;6.51;43.71
63321;BME280;49449;48.800;9.534;2024-01-07T00:45:04;97946.22;;;6.52;43.69
63321;BME280;49449;48.800;9.534;2024-01-07T00:47:32;97938.13;;;6.53;43.50
63321;BME280;49449;48.800;9.534;2024-01-07T00:49:59;97942.00;;;6.51;43.85
63321;BME280;49449;48.800;9.534;2024-01-07T00:52:27;97939.38;;;6.51;44.11
63321;BME280;49449;48.800;9.534;2024-01-07T00:54:55;97945.22;;;6.53;43.61
63321;BME280;49449;48.800;9.534;2024-01-07T00:57:23;97943.59;;;6.52;43.87
63321;BME280;49449;48.800;9.534;2024-01-07T00:59:52;97944.41;;;6.52;43.95
63321;BME280;49449;48.800;9.534;2024-01-07T01:02:20;97946.00;;;6.53;43.69
63321;BME280;49449;48.800;9.534;2024-01-07T01:04:48;97945.22;;;6.53;43.62
63321;BME280;49449;48.800;9.534;2024-01-07T01:07:16;97952.09;;;6.54;43.76
63321;BME280;49449;48.800;9.534;2024-01-07T01:09:43;97953.88;;;6.53;43.72
63321;BME280;49449;48.800;9.534;2024-01-07T01:12:11;97954.91;;;6.52;43.72
63321;BME280;49449;48.800;9.534;2024-01-07T01:14:40;97955.50;;;6.54;43.59
63321;BME280;49449;48.800;9.534;2024-01-07T01:17:09;97948.44;;;6.55;43.58
63321;BME280;49449;48.800;9.534;2024-01-07T01:19:37;97959.13;;;6.53;43.79
63321;BME280;49449;48.800;9.534;2024-01-07T01:22:05;97959.97;;;6.54;43.41
63321;BME280;49449;48.800;9.534;2024-01-07T01:24:33;97958.34;;;6.53;43.53
63321;BME280;49449;48.800;9.534;2024-01-07T01:27:00;97959.97;;;6.54;43.48
63321;BME280;49449;48.800;9.534;2024-01-07T01:29:28;97960.53;;;6.56;43.70
63321;BME280;49449;48.800;9.534;2024-01-07T01:31:56;97960.53;;;6.56;43.65
63321;BME280;49449;48.800;9.534;2024-01-07T01:34:26;97966.78;;;6.55;43.25
63321;BME280;49449;48.800;9.534;2024-01-07T01:36:53;97962.13;;;6.57;43.12
63321;BME280;49449;48.800;9.534;2024-01-07T01:39:21;97962.59;;;6.54;43.35
63321;BME280;49449;48.800;9.534;2024-01-07T01:41:49;97965.22;;;6.54;43.76
63321;BME280;49449;48.800;9.534;2024-01-07T01:44:20;97959.97;;;6.54;43.61
63321;BME280;49449;48.800;9.534;2024-01-07T01:46:47;97958.91;;;6.55;43.49
63321;BME280;49449;48.800;9.534;2024-01-07T01:49:16;97961.75;;;6.53;43.86
63321;BME280;49449;48.800;9.534;2024-01-07T01:51:45;97959.97;;;6.54;43.49
63321;BME280;49449;48.800;9.534;2024-01-07T01:54:13;97967.00;;;6.53;43.71
63321;BME280;49449;48.800;9.534;2024-01-07T01:56:41;97958.91;;;6.55;43.81
63321;BME280;49449;48.800;9.534;2024-01-07T01:59:10;97961.53;;;6.55;43.70
63321;BME280;49449;48.800;9.534;2024-01-07T02:01:38;97962.34;;;6.55;43.71
63321;BME280;49449;48.800;9.534;2024-01-07T02:04:08;97966.22;;;6.53;43.97
63321;BME280;49449;48.800;9.534;2024-01-07T02:06:36;97970.47;;;6.54;43.72
63321;BME280;49449;48.800;9.534;2024-01-07T02:09:05;97966.22;;;6.53;43.87
63321;BME280;49449;48.800;9.534;2024-01-07T02:11:33;97961.97;;;6.52;44.04
63321;BME280;49449;48.800;9.534;2024-01-07T02:14:01;97963.81;;;6.51;43.78
63321;BME280;49449;48.800;9.534;2024-01-07T02:16:28;97965.41;;;6.52;43.90
63321;BME280;49449;48.800;9.534;2024-01-07T02:18:56;97965.63;;;6.51;43.68
63321;BME280;49449;48.800;9.534;2024-01-07T02:21:24;97967.22;;;6.52;43.81
63321;BME280;49449;48.800;9.534;2024-01-07T02:23:52;97966.41;;;6.51;43.93
63321;BME280;49449;48.800;9.534;2024-01-07T02:26:21;97965.63;;;6.51;43.64
63321;BME280;49449;48.800;9.534;2024-01-07T02:28:49;97956.97;;;6.50;43.75
63321;BME280;49449;48.800;9.534;2024-01-07T02:31:17;97962.84;;;6.45;43.69
63321;BME280;49449;48.800;9.534;2024-01-07T02:33:44;97961.00;;;6.46;44.07
63321;BME280;49449;48.800;9.534;2024-01-07T02:36:12;97957.59;;;6.45;43.90
63321;BME280;49449;48.800;9.534;2024-01-07T02:38:42;97954.97;;;6.45;43.84
63321;BME280;49449;48.800;9.534;2024-01-07T02:41:10;97964.88;;;6.43;43.77
63321;BME280;49449;48.800;9.534;2024-01-07T02:43:39;97958.31;;;6.34;43.28
63321;BME280;49449;48.800;9.534;2024-01-07T02:46:07;97964.56;;;6.33;43.89
63321;BME280;49449;48.800;9.534;2024-01-07T02:48:35;97955.88;;;6.33;43.83
63321;BME280;49449;48.800;9.534;2024-01-07T02:51:03;97963.56;;;6.34;43.59
63321;BME280;49449;48.800;9.534;2024-01-07T02:53:32;97965.34;;;6.34;43.79
63321;BME280;49449;48.800;9.534;2024-01-07T02:55:59;97969.59;;;6.35;43.66
63321;BME280;49449;48.800;9.534;2024-01-07T02:58:27;97960.69;;;6.36;43.77
63321;BME280;49449;48.800;9.534;2024-01-07T03:00:56;97972.22;;;6.35;43.55
63321;BME280;49449;48.800;9.534;2024-01-07T03:03:24;97967.56;;;6.37;43.73
63321;BME280;49449;48.800;9.534;2024-01-07T03:05:52;97969.00;;;6.33;43.88
63321;BME280;49449;48.800;9.534;2024-01-07T03:08:20;97967.97;;;6.34;43.89
63321;BME280;49449;48.800;9.534;2024-01-07T03:10:47;97967.34;;;6.38;44.61
63321;BME280;49449;48.800;9.534;2024-01-07T03:13:15;97969.16;;;6.38;44.25
63321;BME280;49449;48.800;9.534;2024-01-07T03:15:43;97965.50;;;6.39;44.12
63321;BME280;49449;48.800;9.534;2024-01-07T03:18:12;97974.19;;;6.39;44.08
63321;BME280;49449;48.800;9.534;2024-01-07T03:20:40;97973.38;;;6.39;43.99
63321;BME280;49449;48.800;9.534;2024-01-07T03:23:08;97977.41;;;6.41;44.13
63321;BME280;49449;48.800;9.534;2024-01-07T03:25:35;97976.59;;;6.41;43.47
63321;BME280;49449;48.800;9.534;2024-01-07T03:28:04;97972.59;;;6.38;43.29
63321;BME280;49449;48.800;9.534;2024-01-07T03:30:32;97985.34;;;6.35;43.53
63321;BME280;49449;48.800;9.534;2024-01-07T03:32:59;97977.66;;;6.33;42.87
63321;BME280;49449;48.800;9.534;2024-01-07T03:35:29;97976.66;;;6.34;43.14
63321;BME280;49449;48.800;9.534;2024-01-07T03:37:56;97988.75;;;6.28;43.08
63321;BME280;49449;48.800;9.534;2024-01-07T03:40:24;97985.94;;;6.30;43.27
63321;BME280;49449;48.800;9.534;2024-01-07T03:42:52;97981.91;;;6.34;42.68
63321;BME280;49449;48.800;9.534;2024-01-07T03:45:21;97987.38;;;6.33;42.96
63321;BME280;49449;48.800;9.534;2024-01-07T03:47:48;97988.75;;;6.35;42.82
63321;BME280;49449;48.800;9.534;2024-01-07T03:50:16;97990.16;;;6.38;42.83
63321;BME280;49449;48.800;9.534;2024-01-07T03:52:46;97993.78;;;6.37;42.40
63321;BME280;49449;48.800;9.534;2024-01-07T03:55:13;97989.34;;;6.37;42.89
63321;BME280;49449;48.800;9.534;2024-01-07T03:57:43;97993.59;;;6.38;42.35
63321;BME280;49449;48.800;9.534;2024-01-07T04:00:11;97991.16;;;6.37;42.66
63321;BME280;49449;48.800;9.534;2024-01-07T04:02:39;97991.38;;;6.35;42.75
63321;BME280;49449;48.800;9.534;2024-01-07T04:05:07;97995.03;;;6.34;42.65
63321;BME280;49449;48.800;9.534;2024-01-07T04:07:35;97992.63;;;6.33;42.90
63321;BME280;49449;48.800;9.534;2024-01-07T04:10:05;97993.63;;;6.32;42.79
63321;BME280;49449;48.800;9.534;2024-01-07T04:12:33;97993.41;;;6.33;43.13
63321;BME280;49449;48.800;9.534;2024-01-07T04:15:04;98001.88;;;6.35;42.88
63321;BME280;49449;48.800;9.534;2024-01-07T04:17:32;97990.59;;;6.35;43.00
63321;BME280;49449;48.800;9.534;2024-01-07T04:19:59;98000.88;;;6.36;42.75
63321;BME280;49449;48.800;9.534;2024-01-07T04:22:27;98001.28;;;6.33;42.84
63321;BME280;49449;48.800;9.534;2024-01-07T04:24:55;98002.09;;;6.27;43.21
63321;BME280;49449;48.800;9.534;2024-01-07T04:27:24;98005.75;;;6.26;42.63
63321;BME280;49449;48.800;9.534;2024-01-07T04:29:52;98006.53;;;6.26;43.13
63321;BME280;49449;48.800;9.534;2024-01-07T04:32:20;98011.38;;;6.30;43.21
63321;BME280;49449;48.800;9.534;2024-01-07T04:34:48;98014.00;;;6.30;45.58
63321;BME280;49449;48.800;9.534;2024-01-07T04:37:15;98013.81;;;6.31;44.16
63321;BME280;49449;48.800;9.534;2024-01-07T04:39:43;98012.00;;;6.32;43.45
63321;BME280;49449;48.800;9.534;2024-01-07T04:42:11;98012.78;;;6.32;43.57
63321;BME280;49449;48.800;9.534;2024-01-07T04:44:41;98009.38;;;6.32;43.27
63321;BME280;49449;48.800;9.534;2024-01-07T04:47:24;98016.63;;;6.30;43.09
63321;BME280;49449;48.800;9.534;2024-01-07T04:49:52;98016.63;;;6.30;43.57
63321;BME280;49449;48.800;9.534;2024-01-07T04:52:21;98024.91;;;6.26;43.39
63321;BME280;49449;48.800;9.534;2024-01-07T04:54:50;98020.91;;;6.24;43.71
63321;BME280;49449;48.800;9.534;2024-01-07T04:57:18;98020.69;;;6.25;43.77
63321;BME280;49449;48.800;9.534;2024-01-07T04:59:48;98025.69;;;6.27;43.67
63321;BME280;49449;48.800;9.534;2024-01-07T05:02:16;98029.34;;;6.26;43.21
63321;BME280;49449;48.800;9.534;2024-01-07T05:04:47;98027.53;;;6.26;43.54
63321;BME280;49449;48.800;9.534;2024-01-07T05:07:15;98026.72;;;6.26;43.81
63321;BME280;49449;48.800;9.534;2024-01-07T05:09:42;98034.81;;;6.24;43.65
63321;BME280;49449;48.800;9.534;2024-01-07T05:12:10;98032.41;;;6.23;43.76
63321;BME280;49449;48.800;9.534;2024-01-07T05:14:38;98045.50;;;6.23;43.92
63321;BME280;49449;48.800;9.534;2024-01-07T05:17:07;98053.59;;;6.21;43.73
63321;BME280;49449;48.800;9.534;2024-01-07T05:19:35;98053.78;;;6.20;43.55
63321;BME280;49449;48.800;9.534;2024-01-07T05:22:03;98048.34;;;6.21;43.14
63321;BME280;49449;48.800;9.534;2024-01-07T05:24:31;98054.41;;;6.22;43.24
63321;BME280;49449;48.800;9.534;2024-01-07T05:27:00;98058.03;;;6.21;43.39
63321;BME280;49449;48.800;9.534;2024-01-07T05:29:28;98060.25;;;6.24;43.37
63321;BME280;49449;48.800;9.534;2024-01-07T05:31:55;98061.03;;;6.24;43.66
63321;BME280;49449;48.800;9.534;2024-01-07T05:34:25;98055.78;;;6.24;43.29
63321;BME280;49449;48.800;9.534;2024-01-07T05:36:54;98055.22;;;6.22;43.46
63321;BME280;49449;48.800;9.534;2024-01-07T05:39:22;98058.63;;;6.23;43.23
63321;BME280;49449;48.800;9.534;2024-01-07T05:41:49;98059.66;;;6.22;43.13
63321;BME280;49449;48.800;9.534;2024-01-07T05:44:17;98061.47;;;6.21;42.98
63321;BME280;49449;48.800;9.534;2024-01-07T05:46:45;98056.22;;;6.21;43.13
63321;BME280;49449;48.800;9.534;2024-01-07T05:49:13;98058.84;;;6.21;43.38
63321;BME280;49449;48.800;9.534;2024-01-07T05:51:42;98066.50;;;6.23;43.48
63321;BME280;49449;48.800;9.534;2024-01-07T05:54:10;98068.13;;;6.24;42.97
63321;BME280;49449;48.800;9.534;2024-01-07T05:56:38;98074.56;;;6.21;43.10
63321;BME280;49449;48.800;9.534;2024-01-07T05:59:06;98072.97;;;6.20;43.47
63321;BME280;49449;48.800;9.534;2024-01-07T06:01:34;98074.38;;;6.23;43.48
63321;BME280;49449;48.800;9.534;2024-01-07T06:04:02;98074.16;;;6.24;43.20
63321;BME280;49449;48.800;9.534;2024-01-07T06:06:30;98070.34;;;6.20;43.30
63321;BME280;49449;48.800;9.534;2024-01-07T06:09:01;98074.19;;;6.18;43.59
63321;BME280;49449;48.800;9.534;2024-01-07T06:11:30;98074.78;;;6.20;43.21
63321;BME280;49449;48.800;9.534;2024-01-07T06:13:58;98077.19;;;6.21;43.00
63321;BME280;49449;48.800;9.534;2024-01-07T06:16:26;98079.03;;;6.21;43.03
63321;BME280;49449;48.800;9.534;2024-01-07T06:18:54;98075.59;;;6.20;42.97
63321;BME280;49449;48.800;9.534;2024-01-07T06:21:22;98079.03;;;6.21;43.18
63321;BME280;49449;48.800;9.534;2024-01-07T06:23:49;98088.13;;;6.18;42.91
63321;BME280;49449;48.800;9.534;2024-01-07T06:26:18;98090.97;;;6.17;42.95
63321;BME280;49449;48.800;9.534;2024-01-07T06:28:46;98091.97;;;6.16;42.79
63321;BME280;49449;48.800;9.534;2024-01-07T06:31:14;98089.53;;;6.14;43.10
63321;BME280;49449;48.800;9.534;2024-01-07T06:33:42;98091.97;;;6.16;42.94
63321;BME280;49449;48.800;9.534;2024-01-07T06:36:10;98100.63;;;6.16;43.03
63321;BME280;49449;48.800;9.534;2024-01-07T06:38:37;98098.81;;;6.17;42.57
63321;BME280;49449;48.800;9.534;2024-01-07T06:41:05;98109.53;;;6.15;42.60
63321;BME280;49449;48.800;9.534;2024-01-07T06:43:34;98106.31;;;6.13;42.07
63321;BME280;49449;48.800;9.534;2024-01-07T06:46:02;98110.53;;;6.14;41.65
63321;BME280;49449;48.800;9.534;2024-01-07T06:48:30;98107.72;;;6.09;41.73
63321;BME280;49449;48.800;9.534;2024-01-07T06:50:58;98117.22;;;6.10;41.37
63321;BME280;49449;48.800;9.534;2024-01-07T06:53:26;98117.00;;;6.12;41.72
63321;BME280;49449;48.800;9.534;2024-01-07T06:55:54;98119.03;;;6.09;41.53
63321;BME280;49449;48.800;9.534;2024-01-07T06:58:21;98119.44;;;6.06;41.75
63321;BME280;49449;48.800;9.534;2024-01-07T07:00:50;98128.31;;;6.05;41.64
63321;BME280;49449;48.800;9.534;2024-01-07T07:03:18;98126.72;;;6.04;41.47
63321;BME280;49449;48.800;9.534;2024-01-07T07:05:46;98127.31;;;6.06;41.59
63321;BME280;49449;48.800;9.534;2024-01-07T07:08:14;98135.78;;;6.08;41.25
63321;BME280;49449;48.800;9.534;2024-01-07T07:10:42;98135.22;;;5.93;41.31
63321;BME280;49449;48.800;9.534;2024-01-07T07:13:12;98135.47;;;5.85;41.08
63321;BME280;49449;48.800;9.534;2024-01-07T07:15:41;98154.44;;;5.67;41.43
63321;BME280;49449;48.800;9.534;2024-01-07T07:18:10;98164.56;;;5.50;40.61
63321;BME280;49449;48.800;9.534;2024-01-07T07:20:38;98160.34;;;5.29;40.97
63321;BME280;49449;48.800;9.534;2024-01-07T07:23:06;98179.06;;;5.19;40.84
63321;BME280;49449;48.800;9.534;2024-01-07T07:25:33;98172.03;;;5.20;40.49
63321;BME280;49449;48.800;9.534;2024-01-07T07:28:01;98176.88;;;5.16;40.75
63321;BME280;49449;48.800;9.534;2024-01-07T07:30:29;98184.09;;;5.14;40.76
63321;BME280;49449;48.800;9.534;2024-01-07T07:32:57;98192.31;;;4.84;40.78
63321;BME280;49449;48.800;9.534;2024-01-07T07:35:26;98194.56;;;5.01;40.70
63321;BME280;49449;48.800;9.534;2024-01-07T07:37:54;98187.94;;;5.11;41.62
63321;BME280;49449;48.800;9.534;2024-01-07T07:40:22;98188.16;;;5.17;40.82
63321;BME280;49449;48.800;9.534;2024-01-07T07:42:51;98194.78;;;5.06;42.50
63321;BME280;49449;48.800;9.534;2024-01-07T07:45:18;98196.81;;;5.17;41.70
63321;BME280;49449;48.800;9.534;2024-01-07T07:47:46;98198.00;;;5.28;41.53
63321;BME280;49449;48.800;9.534;2024-01-07T07:50:14;98205.09;;;5.34;41.21
63321;BME280;49449;48.800;9.534;2024-01-07T07:52:43;98204.88;;;5.36;41.26
63321;BME280;49449;48.800;9.534;2024-01-07T07:55:11;98209.72;;;5.32;42.02
63321;BME280;49449;48.800;9.534;2024-01-07T07:57:39;98215.75;;;5.32;40.72
63321;BME280;49449;48.800;9.534;2024-01-07T08:00:08;98205.28;;;5.26;41.73
63321;BME280;49449;48.800;9.534;2024-01-07T08:02:39;98212.72;;;5.29;42.18
63321;BME280;49449;48.800;9.534;2024-01-07T08:05:07;98209.53;;;5.33;41.48
63321;BME280;49449;48.800;9.534;2024-01-07T08:07:35;98211.13;;;5.41;41.84
63321;BME280;49449;48.800;9.534;2024-01-07T08:10:05;98213.34;;;5.38;41.91
63321;BME280;49449;48.800;9.534;2024-01-07T08:12:35;98217.16;;;5.42;41.85
63321;BME280;49449;48.800;9.534;2024-01-07T08:15:04;98221.63;;;5.48;41.67
63321;BME280;49449;48.800;9.534;2024-01-07T08:17:32;98221.81;;;5.53;41.92
63321;BME280;49449;48.800;9.534;2024-01-07T08:20:00;98218.78;;;5.56;42.66
63321;BME280;49449;48.800;9.534;2024-01-07T08:22:30;98222.81;;;5.52;41.50
63321;BME280;49449;48.800;9.534;2024-01-07T08:24:58;98225.03;;;5.48;41.38
63321;BME280;49449;48.800;9.534;2024-01-07T08:27:27;98223.41;;;5.47;42.57
63321;BME280;49449;48.800;9.534;2024-01-07T08:29:55;98227.84;;;5.47;43.24
63321;BME280;49449;48.800;9.534;2024-01-07T08:32:23;98234.53;;;5.49;44.34
63321;BME280;49449;48.800;9.534;2024-01-07T08:34:51;98230.47;;;5.47;42.48
63321;BME280;49449;48.800;9.534;2024-01-07T08:37:19;98237.94;;;5.43;41.95
63321;BME280;49449;48.800;9.534;2024-01-07T08:39:46;98241.97;;;5.46;44.06
63321;BME280;49449;48.800;9.534;2024-01-07T08:42:14;98247.00;;;5.47;43.32
63321;BME280;49449;48.800;9.534;2024-01-07T08:44:43;98251.81;;;5.44;41.66
63321;BME280;49449;48.800;9.534;2024-01-07T08:47:11;98249.63;;;5.34;41.75
63321;BME280;49449;48.800;9.534;2024-01-07T08:49:39;98248.19;;;5.31;40.69
63321;BME280;49449;48.800;9.534;2024-01-07T08:52:07;98255.03;;;5.12;40.49
63321;BME280;49449;48.800;9.534;2024-01-07T08:54:35;98250.78;;;5.11;39.60
63321;BME280;49449;48.800;9.534;2024-01-07T08:57:04;98261.13;;;4.78;39.16
63321;BME280;49449;48.800;9.534;2024-01-07T08:59:32;98265.38;;;4.86;41.45
63321;BME280;49449;48.800;9.534;2024-01-07T09:02:02;98265.94;;;4.68;40.90
63321;BME280;49449;48.800;9.534;2024-01-07T09:04:29;98272.25;;;4.87;41.40
63321;BME280;49449;48.800;9.534;2024-01-07T09:06:58;98269.63;;;4.87;40.35
63321;BME280;49449;48.800;9.534;2024-01-07T09:09:26;98284.53;;;4.86;40.53
63321;BME280;49449;48.800;9.534;2024-01-07T09:11:54;98288.16;;;4.85;39.32
63321;BME280;49449;48.800;9.534;2024-01-07T09:14:23;98305.91;;;4.48;39.52
63321;BME280;49449;48.800;9.534;2024-01-07T09:16:53;98298.47;;;4.52;40.93
63321;BME280;49449;48.800;9.534;2024-01-07T09:19:23;98301.91;;;4.52;40.77
63321;BME280;49449;48.800;9.534;2024-01-07T09:21:53;98304.53;;;4.59;41.59
63321;BME280;49449;48.800;9.534;2024-01-07T09:24:21;98301.81;;;4.74;41.18
63321;BME280;49449;48.800;9.534;2024-01-07T09:26:48;98301.81;;;4.74;39.78
63321;BME280;49449;48.800;9.534;2024-01-07T09:29:17;98309.00;;;4.65;40.04
63321;BME280;49449;48.800;9.534;2024-01-07T09:31:45;98302.13;;;4.57;39.79
63321;BME280;49449;48.800;9.534;2024-01-07T09:34:13;98311.78;;;4.57;41.05
63321;BME280;49449;48.800;9.534;2024-01-07T09:36:43;98307.53;;;4.49;39.65
63321;BME280;49449;48.800;9.534;2024-01-07T09:39:11;98316.53;;;4.40;39.34
63321;BME280;49449;48.800;9.534;2024-01-07T09:41:39;98309.69;;;4.39;39.71
63321;BME280;49449;48.800;9.534;2024-01-07T09:44:08;98313.09;;;4.39;40.35
63321;BME280;49449;48.800;9.534;2024-01-07T09:46:37;98313.94;;;4.40;39.03
63321;BME280;49449;48.800;9.534;2024-01-07T09:49:09;98313.88;;;4.33;40.77
63321;BME280;49449;48.800;9.534;2024-01-07T09:51:39;98301.38;;;4.29;40.75
63321;BME280;49449;48.800;9.534;2024-01-07T09:54:09;98308.84;;;4.32;39.46
63321;BME280;49449;48.800;9.534;2024-01-07T09:56:46;98314.16;;;3.89;38.75
63321;BME280;49449;48.800;9.534;2024-01-07T09:59:17;98306.25;;;4.04;38.23
63321;BME280;49449;48.800;9.534;2024-01-07T10:01:45;98314.69;;;4.06;39.41
63321;BME280;49449;48.800;9.534;2024-01-07T10:04:15;98317.78;;;4.16;39.92
63321;BME280;49449;48.800;9.534;2024-01-07T10:06:43;98311.75;;;4.15;39.74
63321;BME280;49449;48.800;9.534;2024-01-07T10:09:12;98315.72;;;4.11;38.79
63321;BME280;49449;48.800;9.534;2024-01-07T10:11:40;98313.47;;;4.02;38.96
63321;BME280;49449;48.800;9.534;2024-01-07T10:14:08;98310.56;;;3.90;39.31
63321;BME280;49449;48.800;9.534;2024-01-07T10:16:36;98311.75;;;3.87;39.24
63321;BME280;49449;48.800;9.534;2024-01-07T10:19:04;98312.25;;;4.04;40.52
63321;BME280;49449;48.800;9.534;2024-01-07T10:21:32;98313.34;;;4.16;39.12
63321;BME280;49449;48.800;9.534;2024-01-07T10:24:07;98308.19;;;4.23;42.92
63321;BME280;49449;48.800;9.534;2024-01-07T10:26:38;98313.84;;;4.27;39.66
63321;BME280;49449;48.800;9.534;2024-01-07T10:29:07;98312.47;;;4.37;38.64
63321;BME280;49449;48.800;9.534;2024-01-07T10:31:37;98320.16;;;4.39;38.94
63321;BME280;49449;48.800;9.534;2024-01-07T10:34:07;98313.28;;;4.03;37.60
63321;BME280;49449;48.800;9.534;2024-01-07T10:36:35;98323.94;;;4.02;38.66
63321;BME280;49449;48.800;9.534;2024-01-07T10:39:03;98322.84;;;4.17;38.32
63321;BME280;49449;48.800;9.534;2024-01-07T10:41:31;98322.66;;;4.19;37.94
63321;BME280;49449;48.800;9.534;2024-01-07T10:44:02;98331.28;;;4.19;38.38
63321;BME280;49449;48.800;9.534;2024-01-07T10:46:30;98327.91;;;4.26;38.53
63321;BME280;49449;48.800;9.534;2024-01-07T10:49:04;98324.00;;;4.15;38.03
63321;BME280;49449;48.800;9.534;2024-01-07T10:51:35;98328.31;;;4.29;38.00
63321;BME280;49449;48.800;9.534;2024-01-07T10:54:03;98328.56;;;4.34;38.11
63321;BME280;49449;48.800;9.534;2024-01-07T10:56:35;98330.50;;;4.26;38.49
63321;BME280;49449;48.800;9.534;2024-01-07T10:59:07;98330.75;;;4.31;38.52
63321;BME280;49449;48.800;9.534;2024-01-07T11:01:35;98331.81;;;4.36;38.42
63321;BME280;49449;48.800;9.534;2024-01-07T11:04:07;98330.13;;;4.29;37.70
63321;BME280;49449;48.800;9.534;2024-01-07T11:06:41;98326.13;;;4.33;38.45
63321;BME280;49449;48.800;9.534;2024-01-07T11:09:18;98335.03;;;4.38;40.21
63321;BME280;49449;48.800;9.534;2024-01-07T11:11:47;98333.00;;;4.34;39.72
63321;BME280;49449;48.800;9.534;2024-01-07T11:14:43;98325.56;;;4.09;39.04
63321;BME280;49449;48.800;9.534;2024-01-07T11:17:40;98332.66;;;3.87;38.87
63321;BME280;49449;48.800;9.534;2024-01-07T11:20:13;98330.72;;;3.96;38.29
63321;BME280;49449;48.800;9.534;2024-01-07T11:22:41;98329.69;;;3.69;38.42
63321;BME280;49449;48.800;9.534;2024-01-07T11:25:27;98330.47;;;3.69;40.55
63321;BME280;49449;48.800;9.534;2024-01-07T11:27:56;98334.66;;;3.63;38.45
63321;BME280;49449;48.800;9.534;2024-01-07T11:30:26;98344.41;;;3.76;39.61
63321;BME280;49449;48.800;9.534;2024-01-07T11:32:58;98332.03;;;3.63;39.37
63321;BME280;49449;48.800;9.534;2024-01-07T11:35:55;98341.00;;;3.54;38.68
63321;BME280;49449;48.800;9.534;2024-01-07T11:38:24;98331.44;;;3.61;40.71
63321;BME280;49449;48.800;9.534;2024-01-07T11:40:52;98339.63;;;3.58;41.92
63321;BME280;49449;48.800;9.534;2024-01-07T11:43:20;98339.34;;;3.68;39.91
63321;BME280;49449;48.800;9.534;2024-01-07T11:45:50;98340.06;;;3.84;39.73
63321;BME280;49449;48.800;9.534;2024-01-07T11:48:19;98334.22;;;3.60;38.87
63321;BME280;49449;48.800;9.534;2024-01-07T11:50:47;98347.09;;;3.40;38.48
63321;BME280;49449;48.800;9.534;2024-01-07T11:53:16;98340.06;;;3.40;39.27
63321;BME280;49449;48.800;9.534;2024-01-07T11:55:44;98344.50;;;3.40;40.08
63321;BME280;49449;48.800;9.534;2024-01-07T11:58:12;98349.63;;;3.33;38.49
63321;BME280;49449;48.800;9.534;2024-01-07T12:00:40;98347.91;;;3.40;37.97
63321;BME280;49449;48.800;9.534;2024-01-07T12:03:09;98341.94;;;3.47;39.00
63321;BME280;49449;48.800;9.534;2024-01-07T12:05:38;98349.28;;;3.58;38.87
63321;BME280;49449;48.800;9.534;2024-01-07T12:08:08;98350.06;;;3.37;38.98
63321;BME280;49449;48.800;9.534;2024-01-07T12:10:37;98349.66;;;3.55;39.86
63321;BME280;49449;48.800;9.534;2024-01-07T12:13:05;98347.66;;;3.57;39.34
63321;BME280;49449;48.800;9.534;2024-01-07T12:15:33;98349.59;;;3.70;39.93
63321;BME280;49449;48.800;9.534;2024-01-07T12:18:01;98353.63;;;3.72;46.53
63321;BME280;49449;48.800;9.534;2024-01-07T12:20:30;98364.50;;;3.76;41.16
63321;BME280;49449;48.800;9.534;2024-01-07T12:23:05;98365.31;;;3.76;52.82
63321;BME280;49449;48.800;9.534;2024-01-07T12:25:33;98362.44;;;4.14;44.91
63321;BME280;49449;48.800;9.534;2024-01-07T12:28:02;98363.75;;;4.32;43.39
63321;BME280;49449;48.800;9.534;2024-01-07T12:30:29;98367.00;;;4.34;45.36
63321;BME280;49449;48.800;9.534;2024-01-07T12:32:57;98366.03;;;4.13;41.75
63321;BME280;49449;48.800;9.534;2024-01-07T12:35:26;98361.16;;;3.82;38.58
63321;BME280;49449;48.800;9.534;2024-01-07T12:37:55;98364.22;;;3.86;40.65
63321;BME280;49449;48.800;9.534;2024-01-07T12:40:23;98366.44;;;3.89;39.65
63321;BME280;49449;48.800;9.534;2024-01-07T12:42:53;98362.03;;;3.89;38.76
63321;BME280;49449;48.800;9.534;2024-01-07T12:45:21;98369.63;;;3.84;39.47
63321;BME280;49449;48.800;9.534;2024-01-07T12:47:49;98371.81;;;3.80;39.01
63321;BME280;49449;48.800;9.534;2024-01-07T12:50:17;98373.66;;;3.65;39.88
63321;BME280;49449;48.800;9.534;2024-01-07T12:52:44;98382.38;;;3.72;40.27
63321;BME280;49449;48.800;9.534;2024-01-07T12:55:13;98369.56;;;3.77;39.03
63321;BME280;49449;48.800;9.534;2024-01-07T12:57:41;98372.69;;;3.66;39.10
63321;BME280;49449;48.800;9.534;2024-01-07T13:00:10;98377.06;;;3.66;39.81
63321;BME280;49449;48.800;9.534;2024-01-07T13:02:38;98382.94;;;3.68;40.39
63321;BME280;49449;48.800;9.534;2024-01-07T13:05:07;98387.66;;;3.57;40.23
63321;BME280;49449;48.800;9.534;2024-01-07T13:07:35;98383.94;;;3.45;39.43
63321;BME280;49449;48.800;9.534;2024-01-07T13:10:03;98388.81;;;3.33;39.58
63321;BME280;49449;48.800;9.534;2024-01-07T13:12:32;98383.84;;;3.38;38.49
63321;BME280;49449;48.800;9.534;2024-01-07T13:15:02;98394.13;;;3.40;40.75
63321;BME280;49449;48.800;9.534;2024-01-07T13:17:30;98406.84;;;3.13;38.93